Time;durP1;ratioP1;P1;durP2;ratioP2;P2;SDS_P1;SDS_P2;PMS_P1;PMS_P2;Temp;Humidity;BMP_temperature;BMP_pressure;BME280_temperature;BME280_humidity;BME280_pressure;Samples;Min_cycle;Max_cycle;Signal;HPM_P1;HPM_P2
2023/12/25 00:01:18;;;;;;;28.53;15.93;;;;;;;8.51;74.79;99287.84;5093433;28;20218;-63
2023/12/25 00:03:44;;;;;;;24.13;15.73;;;;;;;8.52;74.95;99286.84;5093893;28;20221;-63
2023/12/25 00:06:11;;;;;;;19.10;13.87;;;;;;;8.52;75.22;99286.84;5093424;28;20195;-63
2023/12/25 00:08:38;;;;;;;16.60;12.33;;;;;;;8.52;74.66;99292.13;5093796;28;20195;-62
2023/12/25 00:11:05;;;;;;;20.40;13.47;;;;;;;8.56;74.47;99290.75;5093320;28;20736;-63
2023/12/25 00:13:33;;;;;;;17.67;12.23;;;;;;;8.55;74.45;99292.59;5093331;28;20566;-63
2023/12/25 00:16:00;;;;;;;15.30;10.17;;;;;;;8.55;75.08;99286.47;5093211;28;20222;-63
2023/12/25 00:18:26;;;;;;;14.23;10.60;;;;;;;8.58;74.18;99284.25;5092862;28;20759;-63
2023/12/25 00:20:53;;;;;;;13.53;9.50;;;;;;;8.61;74.96;99285.69;5093241;28;20556;-63
2023/12/25 00:23:20;;;;;;;10.20;8.90;;;;;;;8.62;74.00;99284.72;5093364;28;20195;-62
2023/12/25 00:25:46;;;;;;;11.90;8.97;;;;;;;8.63;74.27;99281.03;5092768;28;20566;-62
2023/12/25 00:28:13;;;;;;;12.57;8.87;;;;;;;8.65;74.63;99286.97;5093452;28;20199;-63
2023/12/25 00:30:41;;;;;;;12.13;8.90;;;;;;;8.68;74.69;99287.41;5092763;28;20195;-62
2023/12/25 00:33:08;;;;;;;12.30;8.63;;;;;;;8.72;74.32;99293.16;5092666;28;20235;-64
2023/12/25 00:35:34;;;;;;;14.07;9.10;;;;;;;8.73;74.37;99289.47;5092907;28;20740;-62
2023/12/25 00:38:01;;;;;;;12.70;8.50;;;;;;;8.77;73.27;99294.22;5076985;28;20223;-63
2023/12/25 00:40:28;;;;;;;22.33;11.13;;;;;;;8.80;73.70;99300.97;5072303;28;20203;-63
2023/12/25 00:42:55;;;;;;;11.37;9.33;;;;;;;8.80;73.42;99291.22;5072522;28;20663;-63
2023/12/25 00:45:21;;;;;;;11.67;9.00;;;;;;;8.79;73.12;99294.84;5072590;28;20261;-62
2023/12/25 00:47:49;;;;;;;10.90;8.73;;;;;;;8.77;73.37;99296.03;5072429;28;20254;-63
2023/12/25 00:50:16;;;;;;;11.03;8.57;;;;;;;8.76;74.08;99299.69;5072586;28;20188;-63
2023/12/25 00:52:43;;;;;;;14.80;9.33;;;;;;;8.71;73.49;99291.50;5072407;28;20252;-62
2023/12/25 00:55:10;;;;;;;14.57;10.07;;;;;;;8.67;73.36;99295.53;5072529;28;20281;-63
2023/12/25 00:57:37;;;;;;;14.83;9.27;;;;;;;8.69;72.79;99290.88;5072510;28;20280;-63
2023/12/25 01:00:04;;;;;;;10.73;9.60;;;;;;;8.69;73.19;99293.50;5072530;28;20253;-63
2023/12/25 01:02:31;;;;;;;18.10;9.03;;;;;;;8.66;72.81;99293.91;5072480;28;20192;-63
2023/12/25 01:04:59;;;;;;;10.00;8.97;;;;;;;8.64;72.73;99290.63;5077370;28;20555;-63
2023/12/25 01:07:26;;;;;;;10.70;8.30;;;;;;;8.62;72.95;99293.44;5072072;28;20663;-63
2023/12/25 01:09:52;;;;;;;11.83;8.97;;;;;;;8.60;73.60;99299.94;5072276;28;20199;-63
2023/12/25 01:12:19;;;;;;;9.50;8.50;;;;;;;8.55;73.31;99297.88;5071909;28;20207;-63
2023/12/25 01:14:46;;;;;;;11.37;8.43;;;;;;;8.52;73.61;99292.13;5071962;28;20196;-63
2023/12/25 01:17:13;;;;;;;12.83;9.30;;;;;;;8.49;74.39;99292.53;5071622;28;20796;-63
2023/12/25 01:19:39;;;;;;;13.17;9.60;;;;;;;8.45;74.13;99281.47;5071668;28;20202;-63
2023/12/25 01:22:08;;;;;;;14.00;10.03;;;;;;;8.39;75.01;99268.16;5071714;28;20664;-63
2023/12/25 01:24:34;;;;;;;16.03;10.17;;;;;;;8.34;74.77;99267.91;5071746;28;20257;-62
2023/12/25 01:27:01;;;;;;;13.43;10.67;;;;;;;8.31;74.37;99260.34;5071927;28;20196;-62
2023/12/25 01:29:28;;;;;;;22.53;14.23;;;;;;;8.26;75.17;99260.09;5071524;28;20348;-63
2023/12/25 01:31:54;;;;;;;16.93;12.63;;;;;;;8.16;74.98;99259.53;5071482;28;20195;-64
2023/12/25 01:34:21;;;;;;;18.83;13.37;;;;;;;8.14;75.41;99253.63;5071881;28;20250;-63
2023/12/25 01:36:48;;;;;;;18.83;13.83;;;;;;;8.06;75.68;99249.25;5077044;28;20255;-64
2023/12/25 01:39:16;;;;;;;19.13;12.80;;;;;;;8.05;75.80;99247.59;5091605;28;20219;-63
2023/12/25 01:41:42;;;;;;;22.80;12.50;;;;;;;8.03;76.33;99243.50;5091642;28;20195;-63
2023/12/25 01:44:09;;;;;;;18.23;11.87;;;;;;;7.98;76.33;99235.31;5091232;28;20187;-64
2023/12/25 01:46:36;;;;;;;19.30;11.80;;;;;;;8.03;75.94;99238.22;5091696;28;20194;-62
2023/12/25 01:49:03;;;;;;;17.80;11.70;;;;;;;8.01;75.83;99248.19;5091984;28;20701;-63
2023/12/25 01:51:30;;;;;;;15.83;10.17;;;;;;;7.97;76.79;99245.06;5091558;28;20187;-63
2023/12/25 01:53:57;;;;;;;14.57;10.10;;;;;;;7.92;77.06;99249.28;5091945;28;20328;-63
2023/12/25 01:56:25;;;;;;;14.33;9.73;;;;;;;7.93;76.64;99249.09;5091863;28;20201;-62
2023/12/25 01:58:51;;;;;;;15.97;9.73;;;;;;;7.95;76.83;99240.97;5091506;28;20691;-63
2023/12/25 02:01:19;;;;;;;13.17;9.07;;;;;;;7.88;76.81;99235.59;5091752;28;20191;-63
2023/12/25 02:03:47;;;;;;;12.40;8.47;;;;;;;7.92;75.56;99236.06;5091871;28;20187;-63
2023/12/25 02:06:14;;;;;;;14.33;9.00;;;;;;;7.97;76.45;99234.50;5091433;28;20195;-63
2023/12/25 02:08:41;;;;;;;15.43;8.77;;;;;;;7.99;76.11;99239.59;5091248;28;20559;-63
2023/12/25 02:11:08;;;;;;;9.57;8.13;;;;;;;8.02;75.92;99234.78;5091633;28;20197;-65
2023/12/25 02:13:36;;;;;;;13.93;8.93;;;;;;;8.07;75.18;99244.78;5090929;28;20202;-64
2023/12/25 02:16:04;;;;;;;10.70;8.13;;;;;;;8.10;75.17;99244.41;5091327;28;20199;-63
2023/12/25 02:18:30;;;;;;;13.30;8.20;;;;;;;8.03;75.45;99227.63;5091130;28;20226;-64
2023/12/25 02:20:57;;;;;;;10.27;8.43;;;;;;;8.18;74.68;99241.66;5091274;28;20252;-64
2023/12/25 02:23:26;;;;;;;10.33;8.33;;;;;;;8.19;74.69;99241.47;5091639;28;20248;-63
2023/12/25 02:25:57;;;;;;;8.73;7.93;;;;;;;8.21;74.82;99247.41;5091179;28;20187;-63
2023/12/25 02:28:24;;;;;;;12.10;8.87;;;;;;;8.19;75.05;99249.41;5091701;28;20253;-63
2023/12/25 02:30:52;;;;;;;8.83;7.97;;;;;;;8.13;75.22;99241.41;5091322;28;20568;-64
2023/12/25 02:33:19;;;;;;;10.97;8.13;;;;;;;8.03;75.30;99231.13;5090920;28;20222;-63
2023/12/25 02:35:45;;;;;;;10.13;8.90;;;;;;;7.98;76.11;99245.91;5091240;28;20191;-63
2023/12/25 02:38:12;;;;;;;11.57;8.63;;;;;;;7.97;76.67;99244.25;5073429;28;20215;-63
2023/12/25 02:40:39;;;;;;;11.63;8.90;;;;;;;7.96;75.16;99243.44;5071379;28;20207;-62
2023/12/25 02:43:08;;;;;;;9.57;8.10;;;;;;;7.93;75.64;99243.00;5070907;28;20223;-62
2023/12/25 02:45:35;;;;;;;11.40;8.30;;;;;;;7.92;75.32;99241.34;5071007;28;20279;-63
2023/12/25 02:48:02;;;;;;;9.90;8.30;;;;;;;7.82;75.91;99254.03;5070656;28;20196;-63
2023/12/25 02:50:29;;;;;;;9.33;7.93;;;;;;;7.58;76.55;99246.38;5070769;28;20277;-63
2023/12/25 02:52:55;;;;;;;13.33;8.93;;;;;;;7.56;77.76;99249.22;5070806;28;20191;-63
2023/12/25 02:55:22;;;;;;;17.83;10.87;;;;;;;7.38;77.67;99259.34;5070970;28;20188;-63
2023/12/25 02:57:49;;;;;;;13.10;9.40;;;;;;;7.22;78.51;99248.13;5074342;28;20300;-62
2023/12/25 03:00:17;;;;;;;15.73;9.97;;;;;;;7.21;78.92;99252.59;5074839;28;20276;-63
2023/12/25 03:02:44;;;;;;;13.47;9.73;;;;;;;7.27;79.24;99261.59;5074199;28;20569;-63
2023/12/25 03:05:11;;;;;;;11.30;9.77;;;;;;;7.35;78.50;99253.59;5074695;28;20191;-63
2023/12/25 03:07:38;;;;;;;10.80;9.83;;;;;;;7.34;78.10;99262.50;5074185;28;20248;-63
2023/12/25 03:10:05;;;;;;;17.03;9.93;;;;;;;7.36;78.82;99260.53;5074681;28;20261;-63
2023/12/25 03:12:32;;;;;;;14.17;10.13;;;;;;;7.35;78.49;99261.53;5074335;28;20246;-63
2023/12/25 03:14:58;;;;;;;10.43;9.33;;;;;;;7.34;78.83;99259.88;5074546;28;20217;-63
2023/12/25 03:17:26;;;;;;;14.73;9.87;;;;;;;7.28;78.37;99268.53;5074424;28;20249;-63
2023/12/25 03:19:53;;;;;;;14.17;10.10;;;;;;;7.19;79.25;99259.84;5074508;28;20261;-64
2023/12/25 03:22:20;;;;;;;13.47;9.73;;;;;;;7.19;78.88;99262.50;5073847;28;20213;-64
2023/12/25 03:24:46;;;;;;;14.63;9.83;;;;;;;7.11;79.12;99262.56;5074103;28;20274;-64
2023/12/25 03:27:13;;;;;;;19.30;10.37;;;;;;;7.04;79.25;99258.19;5074070;28;20192;-64
2023/12/25 03:29:40;;;;;;;12.40;9.83;;;;;;;7.03;79.65;99264.47;5074000;28;20203;-63
2023/12/25 03:32:07;;;;;;;10.97;9.23;;;;;;;6.87;80.63;99259.34;5073501;28;20667;-63
2023/12/25 03:34:45;;;;;;;13.40;10.93;;;;;;;6.84;81.10;99264.97;5074380;28;20188;-63
2023/12/25 03:37:12;;;;;;;14.03;10.90;;;;;;;6.80;81.07;99258.41;5082729;28;20563;-64
2023/12/25 03:39:39;;;;;;;16.67;10.73;;;;;;;6.75;81.39;99251.03;5093906;28;20971;-63
2023/12/25 03:42:06;;;;;;;16.80;10.70;;;;;;;6.72;81.32;99255.81;5094242;28;20247;-63
2023/12/25 03:44:32;;;;;;;18.80;11.47;;;;;;;6.72;81.72;99245.28;5094247;28;20248;-63
2023/12/25 03:46:59;;;;;;;21.43;11.70;;;;;;;6.66;80.69;99272.38;5094141;28;20270;-63
2023/12/25 03:49:26;;;;;;;16.17;11.60;;;;;;;6.60;81.33;99244.88;5093900;28;20195;-63
2023/12/25 03:51:55;;;;;;;15.63;11.53;;;;;;;6.60;81.42;99263.34;5093216;28;20575;-63
2023/12/25 03:54:22;;;;;;;22.30;14.20;;;;;;;6.43;82.32;99250.44;5093986;28;20197;-63
2023/12/25 03:56:49;;;;;;;18.60;12.87;;;;;;;6.45;82.75;99266.94;5093515;28;20250;-64
2023/12/25 03:59:15;;;;;;;22.43;12.43;;;;;;;6.36;82.63;99252.16;5093689;28;20278;-64
2023/12/25 04:01:42;;;;;;;36.00;21.27;;;;;;;6.43;82.40;99267.09;5093581;28;20343;-64
2023/12/25 04:04:09;;;;;;;53.07;23.87;;;;;;;6.47;82.74;99267.56;5093882;28;20203;-64
2023/12/25 04:06:35;;;;;;;36.63;20.73;;;;;;;6.43;82.61;99271.53;5093638;28;20197;-63
2023/12/25 04:09:04;;;;;;;29.23;18.00;;;;;;;6.46;82.64;99276.47;5092402;28;20679;-63
2023/12/25 04:11:31;;;;;;;27.83;16.90;;;;;;;6.45;82.87;99270.38;5093321;28;20191;-64
2023/12/25 04:13:57;;;;;;;26.57;15.50;;;;;;;6.48;82.90;99275.31;5093615;28;20191;-63
2023/12/25 04:16:26;;;;;;;21.80;13.37;;;;;;;6.53;82.66;99274.78;5093098;28;20726;-63
2023/12/25 04:18:53;;;;;;;23.87;14.60;;;;;;;6.57;82.70;99268.16;5093154;28;20223;-63
2023/12/25 04:21:24;;;;;;;14.80;11.63;;;;;;;6.59;82.10;99266.16;5093027;28;20664;-65
2023/12/25 04:23:51;;;;;;;17.47;11.83;;;;;;;6.59;81.87;99268.78;5093402;28;20325;-63
2023/12/25 04:26:19;;;;;;;23.67;12.73;;;;;;;6.59;82.31;99266.16;5092673;28;20190;-64
2023/12/25 04:28:46;;;;;;;19.60;11.67;;;;;;;6.57;82.04;99258.41;5093118;28;20256;-64
2023/12/25 04:31:13;;;;;;;14.63;11.87;;;;;;;6.50;82.03;99260.13;5093248;28;20204;-64
2023/12/25 04:33:40;;;;;;;17.83;11.40;;;;;;;6.58;82.75;99259.25;5093394;28;20304;-63
2023/12/25 04:36:07;;;;;;;22.93;13.83;;;;;;;6.55;82.31;99251.69;5092843;28;20193;-64
2023/12/25 04:38:35;;;;;;;20.77;13.37;;;;;;;6.62;81.97;99265.81;5072379;28;20217;-63
2023/12/25 04:41:02;;;;;;;24.67;15.43;;;;;;;6.64;81.82;99266.44;5072394;28;20199;-63
2023/12/25 04:43:30;;;;;;;19.23;13.87;;;;;;;6.65;81.18;99265.47;5071977;28;20245;-64
2023/12/25 04:45:56;;;;;;;19.43;12.77;;;;;;;6.58;80.82;99260.09;5072713;28;20247;-64
2023/12/25 04:48:23;;;;;;;16.93;12.27;;;;;;;6.68;81.00;99275.66;5072651;28;20630;-64
2023/12/25 04:50:50;;;;;;;17.33;12.80;;;;;;;6.74;80.54;99285.53;5072651;28;20192;-64
2023/12/25 04:53:17;;;;;;;14.27;12.33;;;;;;;6.73;80.80;99279.41;5072520;28;20191;-64
2023/12/25 04:55:44;;;;;;;11.63;10.13;;;;;;;6.72;80.54;99282.22;5072224;28;20251;-64
2023/12/25 04:58:11;;;;;;;14.53;11.03;;;;;;;6.82;80.41;99288.09;5072184;28;20256;-64
2023/12/25 05:00:39;;;;;;;14.73;11.30;;;;;;;6.89;80.34;99283.72;5072081;28;20187;-63
2023/12/25 05:03:05;;;;;;;19.27;12.27;;;;;;;6.95;79.21;99281.22;5072229;28;20252;-62
2023/12/25 05:05:32;;;;;;;13.73;10.13;;;;;;;6.97;78.71;99283.66;5072175;28;20191;-65
2023/12/25 05:07:59;;;;;;;13.67;10.10;;;;;;;7.00;78.46;99280.69;5072228;28;20196;-63
2023/12/25 05:10:25;;;;;;;12.90;9.77;;;;;;;6.95;79.24;99289.16;5072007;28;20576;-63
2023/12/25 05:12:52;;;;;;;15.80;10.47;;;;;;;6.96;79.13;99274.94;5072240;28;20256;-63
2023/12/25 05:15:19;;;;;;;12.90;10.37;;;;;;;7.02;78.85;99283.97;5071747;28;20544;-63
2023/12/25 05:17:47;;;;;;;12.60;10.47;;;;;;;7.04;78.33;99288.06;5071893;28;20253;-63
2023/12/25 05:20:14;;;;;;;15.23;11.13;;;;;;;7.05;78.76;99289.72;5071846;28;20726;-63
2023/12/25 05:22:41;;;;;;;20.27;9.67;;;;;;;6.98;78.49;99285.31;5071653;28;20252;-63
2023/12/25 05:25:08;;;;;;;14.77;10.63;;;;;;;6.97;79.12;99283.66;5072420;28;20196;-63
2023/12/25 05:27:34;;;;;;;11.33;10.00;;;;;;;6.95;78.65;99288.31;5071349;28;20660;-64
2023/12/25 05:30:01;;;;;;;26.13;14.73;;;;;;;6.93;78.78;99279.72;5071940;28;20256;-63
2023/12/25 05:32:30;;;;;;;17.43;12.27;;;;;;;6.94;79.11;99278.75;5071923;28;20231;-64
2023/12/25 05:34:58;;;;;;;29.87;16.47;;;;;;;6.97;78.61;99288.94;5071648;28;20198;-63
2023/12/25 05:37:25;;;;;;;29.73;15.13;;;;;;;6.98;78.73;99291.41;5082314;28;20193;-64
2023/12/25 05:39:51;;;;;;;33.57;16.83;;;;;;;7.00;78.85;99291.22;5091358;28;20217;-63
2023/12/25 05:42:19;;;;;;;25.07;16.63;;;;;;;6.99;78.80;99290.44;5092139;28;20652;-63
2023/12/25 05:44:45;;;;;;;30.70;15.63;;;;;;;7.02;78.40;99294.53;5091968;28;20194;-64
2023/12/25 05:47:13;;;;;;;31.63;17.17;;;;;;;7.04;78.44;99287.25;5091548;28;20274;-63
2023/12/25 05:49:40;;;;;;;27.47;15.70;;;;;;;7.07;77.90;99289.53;5091813;28;20209;-63
2023/12/25 05:52:08;;;;;;;26.97;15.40;;;;;;;7.06;77.87;99301.09;5091870;28;20248;-64
2023/12/25 05:54:34;;;;;;;35.43;20.40;;;;;;;7.08;78.60;99296.44;5091416;28;20191;-64
2023/12/25 05:57:01;;;;;;;30.67;16.70;;;;;;;7.13;78.86;99302.00;5091327;28;20727;-64
2023/12/25 05:59:28;;;;;;;25.43;13.27;;;;;;;7.14;77.61;99287.81;5091686;28;20215;-64
2023/12/25 06:01:55;;;;;;;29.23;15.33;;;;;;;7.12;77.84;99289.81;5091494;28;20193;-64
2023/12/25 06:04:21;;;;;;;35.17;20.33;;;;;;;7.10;78.07;99281.25;5091370;28;20198;-64
2023/12/25 06:06:48;;;;;;;25.33;17.77;;;;;;;7.18;78.38;99294.41;5091826;28;20198;-64
2023/12/25 06:09:16;;;;;;;25.03;13.47;;;;;;;7.24;78.72;99298.94;5091360;28;20667;-64
2023/12/25 06:11:43;;;;;;;18.30;10.97;;;;;;;7.31;78.49;99291.94;5091430;28;20575;-64
2023/12/25 06:14:10;;;;;;;9.83;8.40;;;;;;;7.37;78.38;99309.72;5091361;28;20256;-63
2023/12/25 06:16:36;;;;;;;12.03;7.80;;;;;;;7.43;77.22;99301.06;5090499;28;20199;-64
2023/12/25 06:19:03;;;;;;;10.03;6.50;;;;;;;7.54;77.19;99279.47;5091229;28;20770;-64
2023/12/25 06:21:30;;;;;;;8.37;7.13;;;;;;;7.54;77.79;99274.19;5089309;28;20254;-64
2023/12/25 06:23:57;;;;;;;7.03;5.93;;;;;;;7.65;77.01;99282.50;5090591;28;20260;-64
2023/12/25 06:26:26;;;;;;;10.73;7.00;;;;;;;7.83;77.57;99274.16;5086980;28;20260;-65
2023/12/25 06:28:53;;;;;;;12.20;7.03;;;;;;;7.97;76.13;99286.56;5085924;28;20255;-66
2023/12/25 06:31:19;;;;;;;7.13;6.47;;;;;;;8.16;76.21;99288.63;5087683;28;20209;-67
2023/12/25 06:33:46;;;;;;;13.13;10.33;;;;;;;8.42;75.64;99299.56;5090608;28;20239;-66
2023/12/25 06:36:13;;;;;;;13.00;9.57;;;;;;;8.73;75.63;99302.72;5090862;28;20225;-65
2023/12/25 06:38:40;;;;;;;9.73;8.73;;;;;;;9.02;72.86;99300.78;5070795;28;20203;-65
2023/12/25 06:41:07;;;;;;;11.00;8.80;;;;;;;9.31;72.94;99295.28;5071605;28;20223;-66
2023/12/25 06:43:35;;;;;;;11.00;8.67;;;;;;;9.63;71.10;99301.81;5076873;28;20242;-64
2023/12/25 06:46:02;;;;;;;12.53;9.00;;;;;;;9.88;69.53;99308.31;5075372;28;20200;-63
2023/12/25 06:48:29;;;;;;;12.07;9.57;;;;;;;10.17;69.36;99318.72;5076644;28;20634;-63
2023/12/25 06:50:56;;;;;;;12.33;9.83;;;;;;;10.51;69.18;99315.97;5083793;28;20606;-63
2023/12/25 06:53:24;;;;;;;12.73;9.63;;;;;;;10.84;66.76;99332.81;5084181;28;20275;-63
2023/12/25 06:55:50;;;;;;;11.90;9.30;;;;;;;11.12;65.68;99336.13;5085124;28;20197;-63
2023/12/25 06:58:17;;;;;;;14.13;9.33;;;;;;;11.33;64.20;99343.91;5083716;28;20284;-62
2023/12/25 07:00:46;;;;;;;11.60;8.27;;;;;;;11.52;64.34;99328.97;5091725;28;20579;-63
2023/12/25 07:03:13;;;;;;;14.13;9.13;;;;;;;11.76;61.52;99323.03;5090609;28;20189;-63
2023/12/25 07:05:40;;;;;;;12.67;9.00;;;;;;;11.97;60.80;99342.22;5092125;28;20533;-65
2023/12/25 07:08:07;;;;;;;11.23;8.90;;;;;;;12.02;60.63;99363.72;5090550;28;20230;-63
2023/12/25 07:10:34;;;;;;;13.10;9.70;;;;;;;12.25;60.54;99357.94;5089549;28;20199;-65
2023/12/25 07:13:01;;;;;;;14.63;9.60;;;;;;;12.57;59.11;99351.66;5091982;28;20195;-71
2023/12/25 07:15:28;;;;;;;13.23;9.63;;;;;;;12.58;59.43;99356.75;5091550;28;20195;-64
2023/12/25 07:17:56;;;;;;;10.67;9.00;;;;;;;12.91;58.71;99362.72;5093971;28;20587;-68
2023/12/25 07:20:23;;;;;;;7.37;6.17;;;;;;;13.25;57.15;99373.03;5090739;28;20298;-64
2023/12/25 07:22:50;;;;;;;8.67;5.27;;;;;;;13.54;58.38;99383.06;5091837;28;20195;-65
2023/12/25 07:25:17;;;;;;;8.97;5.73;;;;;;;13.98;55.55;99372.22;5092916;28;20278;-63
2023/12/25 07:27:43;;;;;;;5.77;5.23;;;;;;;14.28;55.62;99375.81;5092629;28;20264;-69
2023/12/25 07:30:11;;;;;;;8.70;5.13;;;;;;;14.65;54.02;99380.09;5091308;28;20703;-73
2023/12/25 07:32:41;;;;;;;5.97;4.70;;;;;;;14.95;52.41;99386.28;5088926;28;20276;-64
2023/12/25 07:35:10;;;;;;;5.87;4.97;;;;;;;15.24;51.85;99390.78;5089500;28;20191;-65
2023/12/25 07:37:37;;;;;;;6.27;5.13;;;;;;;15.43;53.47;99378.19;5091677;28;20191;-67
2023/12/25 07:40:04;;;;;;;5.53;4.93;;;;;;;15.68;50.51;99379.63;5090731;28;20690;-67
2023/12/25 07:42:31;;;;;;;8.83;5.40;;;;;;;15.62;49.83;99383.25;5088691;28;20199;-65
2023/12/25 07:44:58;;;;;;;6.90;4.90;;;;;;;15.85;50.44;99377.09;5090921;28;20199;-68
2023/12/25 07:47:25;;;;;;;5.03;4.20;;;;;;;16.10;49.85;99379.53;5086537;28;20277;-66
2023/12/25 07:49:53;;;;;;;6.30;4.73;;;;;;;16.37;48.77;99375.31;5088217;28;20804;-71
2023/12/25 07:52:21;;;;;;;6.43;4.80;;;;;;;16.38;49.87;99376.94;5089567;28;20195;-67
2023/12/25 07:54:48;;;;;;;9.63;4.97;;;;;;;16.48;47.60;99383.34;5089750;28;20659;-66
2023/12/25 07:57:16;;;;;;;7.77;5.30;;;;;;;16.59;49.63;99368.28;5093368;28;20217;-66
2023/12/25 07:59:43;;;;;;;7.27;5.20;;;;;;;17.01;49.50;99378.53;5092929;28;20214;-67
2023/12/25 08:02:10;;;;;;;7.60;5.17;;;;;;;17.12;45.08;99388.41;5113429;28;20202;-67
2023/12/25 08:04:37;;;;;;;8.10;5.60;;;;;;;16.99;46.31;99382.50;5099882;28;20248;-65
2023/12/25 08:07:04;;;;;;;9.40;6.23;;;;;;;16.89;50.11;99374.25;5092941;28;20634;-66
2023/12/25 08:09:32;;;;;;;10.23;6.37;;;;;;;17.08;47.90;99383.75;5093301;28;20264;-67
2023/12/25 08:11:59;;;;;;;5.17;4.73;;;;;;;17.06;45.49;99375.94;5092609;28;20206;-66
2023/12/25 08:14:25;;;;;;;5.37;4.87;;;;;;;16.92;45.14;99384.50;5093431;28;20191;-66
2023/12/25 08:16:53;;;;;;;5.93;5.23;;;;;;;16.80;45.44;99370.31;5079770;28;20191;-66
2023/12/25 08:19:19;;;;;;;5.83;5.20;;;;;;;16.76;46.13;99366.47;5092534;28;20292;-66
2023/12/25 08:21:46;;;;;;;9.57;5.87;;;;;;;16.74;45.31;99366.72;5092954;28;20547;-65
2023/12/25 08:24:13;;;;;;;7.73;5.10;;;;;;;16.68;45.43;99373.06;5092792;28;20240;-65
2023/12/25 08:26:41;;;;;;;6.67;5.40;;;;;;;17.06;46.06;99375.13;5093016;28;20244;-65
2023/12/25 08:29:08;;;;;;;6.60;5.10;;;;;;;17.58;44.85;99377.44;5092863;28;20521;-65
2023/12/25 08:31:34;;;;;;;12.87;5.23;;;;;;;18.05;44.01;99373.31;5092759;28;20225;-65
2023/12/25 08:34:02;;;;;;;7.67;5.00;;;;;;;18.58;43.21;99372.75;5092160;28;20231;-65
2023/12/25 08:36:28;;;;;;;9.37;5.47;;;;;;;18.64;40.80;99369.84;5091581;28;20344;-64
2023/12/25 08:38:55;;;;;;;10.70;5.53;;;;;;;18.68;40.16;99359.41;5092439;28;20617;-64
2023/12/25 08:41:22;;;;;;;7.77;3.93;;;;;;;18.70;39.07;99363.47;5092322;28;20231;-64
2023/12/25 08:43:50;;;;;;;9.53;4.10;;;;;;;18.75;39.10;99354.66;5092029;28;20193;-63
2023/12/25 08:46:16;;;;;;;7.13;5.23;;;;;;;18.65;38.35;99349.13;5092204;28;20245;-64
2023/12/25 08:48:43;;;;;;;8.73;5.20;;;;;;;18.69;38.33;99347.56;5092716;28;20280;-64
2023/12/25 08:51:10;;;;;;;10.37;5.30;;;;;;;19.02;38.78;99339.31;5092198;28;20195;-64
2023/12/25 08:53:37;;;;;;;5.83;4.13;;;;;;;19.55;36.55;99350.06;5091825;28;20201;-64
2023/12/25 08:56:04;;;;;;;4.50;3.70;;;;;;;20.05;35.06;99339.66;5092428;28;20271;-62
2023/12/25 08:58:31;;;;;;;7.17;3.90;;;;;;;20.39;35.62;99332.88;5092019;28;20194;-62
2023/12/25 09:00:59;;;;;;;9.03;4.17;;;;;;;20.90;33.63;99340.06;5092208;28;20233;-62
2023/12/25 09:03:25;;;;;;;11.93;3.93;;;;;;;21.24;35.32;99330.44;5092406;28;20191;-62
2023/12/25 09:05:52;;;;;;;15.47;3.67;;;;;;;21.63;32.05;99334.22;5092153;28;20256;-63
2023/12/25 09:08:21;;;;;;;7.90;3.23;;;;;;;21.78;34.30;99323.44;5092351;28;20191;-62
2023/12/25 09:10:48;;;;;;;3.47;2.53;;;;;;;21.88;31.24;99328.03;5092135;28;20285;-63
2023/12/25 09:13:17;;;;;;;8.33;3.03;;;;;;;22.09;30.97;99324.19;5092240;28;20256;-63
2023/12/25 09:15:44;;;;;;;4.60;2.90;;;;;;;21.99;31.19;99268.22;5091780;28;20258;-64
2023/12/25 09:18:12;;;;;;;12.23;3.10;;;;;;;22.48;29.04;99323.28;5091807;28;20207;-63
2023/12/25 09:20:38;;;;;;;3.30;2.47;;;;;;;22.62;31.53;99324.28;5091870;28;20219;-63
2023/12/25 09:23:05;;;;;;;10.23;2.70;;;;;;;22.80;28.92;99320.97;5092016;28;20257;-63
2023/12/25 09:25:32;;;;;;;10.43;3.57;;;;;;;23.04;29.16;99318.38;5092280;28;20208;-63
2023/12/25 09:27:59;;;;;;;5.20;2.77;;;;;;;23.00;28.99;99314.59;5088664;28;20212;-63
2023/12/25 09:30:26;;;;;;;3.03;2.07;;;;;;;23.05;27.24;99323.53;5068677;28;20224;-67
2023/12/25 09:32:52;;;;;;;7.07;2.70;;;;;;;23.11;27.11;99311.53;5068014;28;20234;-64
2023/12/25 09:35:21;;;;;;;3.50;3.20;;;;;;;23.17;28.12;99298.75;5068000;28;20770;-67
2023/12/25 09:37:47;;;;;;;9.90;4.33;;;;;;;23.36;27.18;99302.47;5073278;28;20628;-64
2023/12/25 09:40:14;;;;;;;5.97;4.10;;;;;;;23.13;28.67;99286.88;5078456;28;20669;-64
2023/12/25 09:42:42;;;;;;;5.30;2.60;;;;;;;23.26;28.81;99288.97;5069989;28;20189;-64
2023/12/25 09:45:11;;;;;;;5.07;3.07;;;;;;;23.06;28.66;99289.09;5075946;28;20192;-65
2023/12/25 09:47:38;;;;;;;4.40;3.30;;;;;;;22.93;27.11;99285.13;5070114;28;20243;-63
2023/12/25 09:50:06;;;;;;;7.47;3.13;;;;;;;22.96;27.71;99272.91;5074529;28;20204;-64
2023/12/25 09:52:34;;;;;;;5.07;2.93;;;;;;;23.04;28.00;99283.97;5090611;28;20282;-64
2023/12/25 09:55:01;;;;;;;4.73;2.40;;;;;;;22.99;26.96;99275.84;5090687;28;20196;-63
2023/12/25 09:57:30;;;;;;;2.73;2.40;;;;;;;22.94;26.69;99261.53;5090494;28;20287;-64
2023/12/25 09:59:57;;;;;;;56.50;5.30;;;;;;;22.72;26.94;99264.66;5090414;28;20698;-63
2023/12/25 10:02:25;;;;;;;4.10;2.60;;;;;;;22.06;27.40;99271.44;5090386;28;20195;-65
2023/12/25 10:04:51;;;;;;;5.03;2.40;;;;;;;22.00;27.70;99255.47;5089077;28;20203;-64
2023/12/25 10:07:20;;;;;;;3.30;3.00;;;;;;;21.82;28.42;99247.97;5088915;28;20655;-63
2023/12/25 10:09:49;;;;;;;11.93;4.10;;;;;;;21.95;28.66;99241.97;5089430;28;20218;-63
2023/12/25 10:12:15;;;;;;;8.03;4.03;;;;;;;21.78;28.52;99239.59;5089494;28;20225;-62
2023/12/25 10:14:42;;;;;;;4.07;2.63;;;;;;;22.00;30.49;99240.06;5089191;28;20195;-63
2023/12/25 10:17:09;;;;;;;3.27;2.70;;;;;;;22.20;29.26;99237.28;5090097;28;20184;-63
2023/12/25 10:19:50;;;;;;;3.17;2.20;;;;;;;22.13;27.11;99244.88;5090265;28;20195;-64
2023/12/25 10:22:28;;;;;;;7.93;2.80;;;;;;;22.17;27.10;99229.72;5090218;28;20274;-61
2023/12/25 10:25:05;;;;;;;2.23;2.07;;;;;;;22.05;27.75;99226.50;5090601;28;20274;-62
2023/12/25 10:27:33;;;;;;;6.33;2.50;;;;;;;22.00;29.47;99220.31;5089581;28;20183;-61
2023/12/25 10:30:02;;;;;;;10.97;2.30;;;;;;;22.15;27.76;99210.25;5090878;28;20192;-61
2023/12/25 10:32:30;;;;;;;5.63;2.20;;;;;;;22.06;26.93;99216.50;5090312;28;20227;-62
2023/12/25 10:35:10;;;;;;;5.03;2.40;;;;;;;21.80;26.92;99202.25;5090828;28;20195;-63
2023/12/25 10:37:38;;;;;;;3.20;2.20;;;;;;;21.80;29.50;99202.25;5078566;28;20250;-63
2023/12/25 10:40:18;;;;;;;3.50;2.43;;;;;;;22.16;28.75;99211.03;5070723;28;20188;-61
2023/12/25 10:42:47;;;;;;;4.17;2.60;;;;;;;22.35;27.25;99210.16;5071012;28;20180;-61
2023/12/25 10:45:15;;;;;;;3.80;1.87;;;;;;;22.55;28.29;99206.56;5070496;28;20196;-62
2023/12/25 10:47:42;;;;;;;6.43;2.23;;;;;;;22.71;28.11;99208.88;5070285;28;20243;-61
2023/12/25 10:50:10;;;;;;;8.27;2.50;;;;;;;22.87;27.54;99202.25;5070859;28;20273;-62
2023/12/25 10:52:37;;;;;;;3.73;2.20;;;;;;;22.79;26.61;99194.72;5070224;28;20192;-62
2023/12/25 10:55:05;;;;;;;2.40;2.07;;;;;;;22.85;27.86;99199.03;5070301;28;20284;-63
2023/12/25 10:57:36;;;;;;;8.00;2.30;;;;;;;23.00;26.91;99201.63;5070274;28;20210;-61
2023/12/25 11:00:04;;;;;;;24.70;4.10;;;;;;;23.17;28.73;99193.06;5070465;28;20201;-62
2023/12/25 11:02:37;;;;;;;3.87;2.60;;;;;;;23.26;26.40;99194.91;5070355;28;20256;-61
2023/12/25 11:05:04;;;;;;;3.53;2.23;;;;;;;23.33;26.39;99195.41;5070454;28;20727;-61
2023/12/25 11:07:31;;;;;;;4.37;2.50;;;;;;;23.41;26.81;99200.22;5070890;28;20201;-61
2023/12/25 11:10:00;;;;;;;4.17;2.60;;;;;;;23.56;27.11;99199.25;5070381;28;20258;-61
2023/12/25 11:12:28;;;;;;;8.27;4.37;;;;;;;23.55;25.91;99192.19;5070900;28;20652;-61
2023/12/25 11:14:56;;;;;;;7.63;3.37;;;;;;;23.51;27.97;99181.09;5070389;28;20194;-62
2023/12/25 11:17:23;;;;;;;3.30;2.40;;;;;;;23.37;26.21;99191.03;5071766;28;20197;-61
2023/12/25 11:19:51;;;;;;;4.23;2.20;;;;;;;22.95;26.39;99171.84;5074319;28;20194;-61
2023/12/25 11:22:28;;;;;;;5.53;2.20;;;;;;;22.98;26.64;99182.13;5073828;28;20287;-65
2023/12/25 11:24:56;;;;;;;5.80;2.30;;;;;;;22.83;26.98;99187.66;5074176;28;20579;-61
2023/12/25 11:27:26;;;;;;;5.33;2.50;;;;;;;22.76;27.20;99184.47;5073815;28;20266;-62
2023/12/25 11:29:53;;;;;;;7.03;2.30;;;;;;;22.81;27.19;99189.84;5073402;28;20223;-61